Main page
METAR-TAF:

METAR-TAF

Airports :

Port Bouet Airport

Abidjan, Ivory coast

latitude: 05-15N, longitude: 003-56W, elevation: 7 m

Current weather observation

The report was made 29 minutes ago, at 01:00 UTC
Wind 2 kt from the West
Temperature 29°C
Humidity 84%
Pressure 1011 hPa
Visibility 10 km or more
Few clouds at a height of 1200 ft

METAR: DIAP 190100Z 26002KT 9999 FEW012 29/26 Q1011 NOSIG

Time: 01:29 (01:29 UTC)

Forecast

The report was made 2 hours and 29 minutes ago, at 23:00 UTC
Forecast valid from 19 at 00 UTC to 20 at 06 UTC
Wind 4 kt from the South/Southwest
Visibility 10 km or more
Scattered clouds at a height of 1200 ft
Temporary
from 19 at 16 UTC to 19 at 22 UTC
Broken clouds at a height of 1200 ft
Few clouds at a height of 2000 ft, Cumulonimbus.
thunderstorm

TAF: DIAP 182300Z 1900/2006 20004KT 9999 SCT012 TEMPO 1916/1922 TS BKN012 FEW020CB

Weather observations and forecasts of more than 4000 airports (METAR and TAF reports).

The available stations are represented by yellow and red dots on the map.

Hover mouse over dot to see the name of the station.

Then click to see weather observations and forecasts.

To change the map : click on the green buttons with a black cross to zoom in, on the green button with a dash to zoom out, or on the green arrows for adjacent maps.


METAR-TAF: